sensor_id;sensor_type;location;lat;lon;timestamp;pressure;altitude;pressure_sealevel;temperature;humidity
18509;BME280;9383;50.928;12.116;2023-04-08T00:01:06;99190.81;;;4.78;97.00
18509;BME280;9383;50.928;12.116;2023-04-08T00:03:32;99200.41;;;4.83;97.16
18509;BME280;9383;50.928;12.116;2023-04-08T00:05:59;99194.28;;;4.82;96.18
18509;BME280;9383;50.928;12.116;2023-04-08T00:08:27;99191.63;;;4.84;96.69
18509;BME280;9383;50.928;12.116;2023-04-08T00:11:01;99190.75;;;4.85;96.56
18509;BME280;9383;50.928;12.116;2023-04-08T00:13:28;99185.53;;;4.83;96.31
18509;BME280;9383;50.928;12.116;2023-04-08T00:16:03;99186.38;;;4.85;96.41
18509;BME280;9383;50.928;12.116;2023-04-08T00:18:29;99181.97;;;4.87;96.26
18509;BME280;9383;50.928;12.116;2023-04-08T00:20:56;99183.72;;;4.90;95.87
18509;BME280;9383;50.928;12.116;2023-04-08T00:23:23;99184.56;;;4.90;96.42
18509;BME280;9383;50.928;12.116;2023-04-08T00:25:49;99181.97;;;4.87;96.50
18509;BME280;9383;50.928;12.116;2023-04-08T00:28:16;99188.97;;;4.88;96.64
18509;BME280;9383;50.928;12.116;2023-04-08T00:30:43;99185.50;;;4.86;96.94
18509;BME280;9383;50.928;12.116;2023-04-08T00:33:09;99189.88;;;4.83;97.94
18509;BME280;9383;50.928;12.116;2023-04-08T00:35:36;99187.28;;;4.81;98.01
18509;BME280;9383;50.928;12.116;2023-04-08T00:38:02;99189.91;;;4.78;98.62
18509;BME280;9383;50.928;12.116;2023-04-08T00:40:30;99186.47;;;4.74;99.48
18509;BME280;9383;50.928;12.116;2023-04-08T00:42:56;99187.34;;;4.72;100.00
18509;BME280;9383;50.928;12.116;2023-04-08T00:45:23;99180.34;;;4.68;100.00
18509;BME280;9383;50.928;12.116;2023-04-08T00:47:50;99187.38;;;4.65;100.00
18509;BME280;9383;50.928;12.116;2023-04-08T00:50:18;99188.28;;;4.61;100.00
18509;BME280;9383;50.928;12.116;2023-04-08T00:52:45;99181.31;;;4.59;100.00
18509;BME280;9383;50.928;12.116;2023-04-08T00:55:12;99189.22;;;4.57;100.00
18509;BME280;9383;50.928;12.116;2023-04-08T00:57:39;99187.47;;;4.55;100.00
18509;BME280;9383;50.928;12.116;2023-04-08T01:00:06;99195.34;;;4.55;100.00
18509;BME280;9383;50.928;12.116;2023-04-08T01:05:51;99189.22;;;4.51;100.00
18509;BME280;9383;50.928;12.116;2023-04-08T01:08:24;99192.75;;;4.50;100.00
18509;BME280;9383;50.928;12.116;2023-04-08T01:10:53;99199.72;;;4.51;100.00
18509;BME280;9383;50.928;12.116;2023-04-08T01:13:26;99192.75;;;4.50;100.00
18509;BME280;9383;50.928;12.116;2023-04-08T01:15:55;99200.63;;;4.50;100.00
18509;BME280;9383;50.928;12.116;2023-04-08T01:18:22;99189.22;;;4.51;100.00
18509;BME280;9383;50.928;12.116;2023-04-08T01:20:50;99188.34;;;4.52;100.00
18509;BME280;9383;50.928;12.116;2023-04-08T01:25:55;99193.59;;;4.54;100.00
18509;BME280;9383;50.928;12.116;2023-04-08T01:28:23;99183.94;;;4.54;100.00
18509;BME280;9383;50.928;12.116;2023-04-08T01:30:55;99193.56;;;4.57;100.00
18509;BME280;9383;50.928;12.116;2023-04-08T01:33:25;99192.69;;;4.58;100.00
18509;BME280;9383;50.928;12.116;2023-04-08T01:35:54;99197.94;;;4.59;100.00
18509;BME280;9383;50.928;12.116;2023-04-08T01:38:23;99190.09;;;4.56;100.00
18509;BME280;9383;50.928;12.116;2023-04-08T01:40:52;99194.44;;;4.54;100.00
18509;BME280;9383;50.928;12.116;2023-04-08T01:43:20;99194.47;;;4.53;100.00
18509;BME280;9383;50.928;12.116;2023-04-08T01:45:48;99200.59;;;4.53;100.00
18509;BME280;9383;50.928;12.116;2023-04-08T01:48:15;99195.38;;;4.50;100.00
18509;BME280;9383;50.928;12.116;2023-04-08T01:50:43;99191.88;;;4.48;100.00
18509;BME280;9383;50.928;12.116;2023-04-08T01:53:11;99186.63;;;4.46;100.00
18509;BME280;9383;50.928;12.116;2023-04-08T01:55:39;99192.78;;;4.44;100.00
18509;BME280;9383;50.928;12.116;2023-04-08T01:58:07;99196.31;;;4.43;100.00
18509;BME280;9383;50.928;12.116;2023-04-08T02:00:38;99194.53;;;4.42;100.00
18509;BME280;9383;50.928;12.116;2023-04-08T02:03:06;99187.53;;;4.41;100.00
18509;BME280;9383;50.928;12.116;2023-04-08T02:05:34;99196.28;;;4.40;100.00
18509;BME280;9383;50.928;12.116;2023-04-08T02:08:21;99197.19;;;4.39;100.00
18509;BME280;9383;50.928;12.116;2023-04-08T02:10:48;99191.94;;;4.39;100.00
18509;BME280;9383;50.928;12.116;2023-04-08T02:13:15;99196.31;;;4.36;100.00
18509;BME280;9383;50.928;12.116;2023-04-08T02:15:48;99202.47;;;4.37;100.00
18509;BME280;9383;50.928;12.116;2023-04-08T02:18:23;99201.56;;;4.36;100.00
18509;BME280;9383;50.928;12.116;2023-04-08T02:20:56;99195.44;;;4.38;100.00
18509;BME280;9383;50.928;12.116;2023-04-08T02:23:27;99198.94;;;4.36;100.00
18509;BME280;9383;50.928;12.116;2023-04-08T02:25:55;99197.22;;;4.37;100.00
18509;BME280;9383;50.928;12.116;2023-04-08T02:28:39;99198.94;;;4.36;100.00
18509;BME280;9383;50.928;12.116;2023-04-08T02:31:11;99198.94;;;4.38;100.00
18509;BME280;9383;50.928;12.116;2023-04-08T02:33:39;99194.56;;;4.39;100.00
18509;BME280;9383;50.928;12.116;2023-04-08T02:36:07;99198.06;;;4.38;100.00
18509;BME280;9383;50.928;12.116;2023-04-08T02:38:34;99193.69;;;4.38;100.00
18509;BME280;9383;50.928;12.116;2023-04-08T02:41:01;99192.81;;;4.38;100.00
18509;BME280;9383;50.928;12.116;2023-04-08T02:43:28;99191.94;;;4.35;100.00
18509;BME280;9383;50.928;12.116;2023-04-08T02:45:58;99193.72;;;4.33;100.00
18509;BME280;9383;50.928;12.116;2023-04-08T02:48:29;99191.94;;;4.34;100.00
18509;BME280;9383;50.928;12.116;2023-04-08T02:50:55;99191.94;;;4.34;100.00
18509;BME280;9383;50.928;12.116;2023-04-08T02:53:23;99198.97;;;4.33;100.00
18509;BME280;9383;50.928;12.116;2023-04-08T02:55:49;99191.97;;;4.32;100.00
18509;BME280;9383;50.928;12.116;2023-04-08T02:58:16;99204.22;;;4.32;100.00
18509;BME280;9383;50.928;12.116;2023-04-08T03:00:42;99195.47;;;4.31;100.00
18509;BME280;9383;50.928;12.116;2023-04-08T03:03:09;99198.09;;;4.30;100.00
18509;BME280;9383;50.928;12.116;2023-04-08T03:05:36;99200.72;;;4.28;100.00
18509;BME280;9383;50.928;12.116;2023-04-08T03:08:03;99191.13;;;4.27;100.00
18509;BME280;9383;50.928;12.116;2023-04-08T03:10:29;99194.63;;;4.26;100.00
18509;BME280;9383;50.928;12.116;2023-04-08T03:12:56;99188.50;;;4.27;100.00
18509;BME280;9383;50.928;12.116;2023-04-08T03:15:22;99194.63;;;4.28;100.00
18509;BME280;9383;50.928;12.116;2023-04-08T03:17:49;99191.13;;;4.27;100.00
18509;BME280;9383;50.928;12.116;2023-04-08T03:20:16;99186.78;;;4.25;100.00
18509;BME280;9383;50.928;12.116;2023-04-08T03:22:42;99193.78;;;4.21;100.00
18509;BME280;9383;50.928;12.116;2023-04-08T03:25:09;99193.78;;;4.19;100.00
18509;BME280;9383;50.928;12.116;2023-04-08T03:27:36;99199.06;;;4.18;100.00
18509;BME280;9383;50.928;12.116;2023-04-08T03:30:04;99199.06;;;4.16;100.00
18509;BME280;9383;50.928;12.116;2023-04-08T03:32:31;99202.53;;;4.17;100.00
18509;BME280;9383;50.928;12.116;2023-04-08T03:34:57;99199.06;;;4.16;100.00
18509;BME280;9383;50.928;12.116;2023-04-08T03:37:24;99202.56;;;4.15;100.00
18509;BME280;9383;50.928;12.116;2023-04-08T03:39:50;99192.91;;;4.16;100.00
18509;BME280;9383;50.928;12.116;2023-04-08T03:42:17;99199.06;;;4.16;100.00
18509;BME280;9383;50.928;12.116;2023-04-08T03:44:55;99200.78;;;4.16;100.00
18509;BME280;9383;50.928;12.116;2023-04-08T03:47:23;99201.66;;;4.15;100.00
18509;BME280;9383;50.928;12.116;2023-04-08T03:49:51;99205.16;;;4.14;100.00
18509;BME280;9383;50.928;12.116;2023-04-08T03:52:19;99208.69;;;4.14;100.00
18509;BME280;9383;50.928;12.116;2023-04-08T03:54:45;99208.69;;;4.14;100.00
18509;BME280;9383;50.928;12.116;2023-04-08T03:57:12;99211.31;;;4.13;100.00
18509;BME280;9383;50.928;12.116;2023-04-08T03:59:38;99206.94;;;4.13;100.00
18509;BME280;9383;50.928;12.116;2023-04-08T04:02:06;99209.56;;;4.13;100.00
18509;BME280;9383;50.928;12.116;2023-04-08T04:04:33;99222.69;;;4.13;100.00
18509;BME280;9383;50.928;12.116;2023-04-08T04:07:01;99222.69;;;4.12;100.00
18509;BME280;9383;50.928;12.116;2023-04-08T04:09:27;99220.06;;;4.12;100.00
18509;BME280;9383;50.928;12.116;2023-04-08T04:11:56;99228.81;;;4.09;100.00
18509;BME280;9383;50.928;12.116;2023-04-08T04:14:22;99226.22;;;4.07;100.00
18509;BME280;9383;50.928;12.116;2023-04-08T04:16:49;99235.84;;;4.05;100.00
18509;BME280;9383;50.928;12.116;2023-04-08T04:19:16;99236.69;;;4.04;100.00
18509;BME280;9383;50.928;12.116;2023-04-08T04:21:43;99245.44;;;4.03;100.00
18509;BME280;9383;50.928;12.116;2023-04-08T04:24:25;99243.69;;;4.02;100.00
18509;BME280;9383;50.928;12.116;2023-04-08T04:26:52;99242.84;;;4.02;100.00
18509;BME280;9383;50.928;12.116;2023-04-08T04:29:22;99248.97;;;4.01;100.00
18509;BME280;9383;50.928;12.116;2023-04-08T04:32:14;99248.97;;;3.99;100.00
18509;BME280;9383;50.928;12.116;2023-04-08T04:34:41;99256.81;;;3.98;100.00
18509;BME280;9383;50.928;12.116;2023-04-08T04:37:07;99255.09;;;4.00;100.00
18509;BME280;9383;50.928;12.116;2023-04-08T04:39:34;99254.22;;;4.01;100.00
18509;BME280;9383;50.928;12.116;2023-04-08T04:42:01;99256.81;;;3.99;100.00
18509;BME280;9383;50.928;12.116;2023-04-08T04:44:28;99262.09;;;4.01;100.00
18509;BME280;9383;50.928;12.116;2023-04-08T04:46:56;99254.19;;;3.99;100.00
18509;BME280;9383;50.928;12.116;2023-04-08T04:49:23;99252.47;;;3.98;100.00
18509;BME280;9383;50.928;12.116;2023-04-08T04:51:49;99260.34;;;3.98;100.00
18509;BME280;9383;50.928;12.116;2023-04-08T04:54:16;99252.47;;;3.98;100.00
18509;BME280;9383;50.928;12.116;2023-04-08T04:56:42;99258.59;;;3.99;100.00
18509;BME280;9383;50.928;12.116;2023-04-08T04:59:09;99255.09;;;4.00;100.00
18509;BME280;9383;50.928;12.116;2023-04-08T05:01:35;99259.47;;;4.01;100.00
18509;BME280;9383;50.928;12.116;2023-04-08T05:04:02;99262.94;;;4.01;100.00
18509;BME280;9383;50.928;12.116;2023-04-08T05:06:29;99267.31;;;4.01;100.00
18509;BME280;9383;50.928;12.116;2023-04-08T05:08:56;99267.31;;;4.01;100.00
18509;BME280;9383;50.928;12.116;2023-04-08T05:11:22;99262.06;;;3.99;100.00
18509;BME280;9383;50.928;12.116;2023-04-08T05:13:49;99262.97;;;4.00;100.00
18509;BME280;9383;50.928;12.116;2023-04-08T05:16:16;99270.84;;;4.00;100.00
18509;BME280;9383;50.928;12.116;2023-04-08T05:18:42;99269.09;;;3.99;100.00
18509;BME280;9383;50.928;12.116;2023-04-08T05:21:09;99263.81;;;4.00;100.00
18509;BME280;9383;50.928;12.116;2023-04-08T05:23:36;99271.69;;;4.00;100.00
18509;BME280;9383;50.928;12.116;2023-04-08T05:26:06;99264.69;;;4.01;100.00
18509;BME280;9383;50.928;12.116;2023-04-08T05:28:35;99275.19;;;4.01;100.00
18509;BME280;9383;50.928;12.116;2023-04-08T05:31:02;99281.31;;;4.01;100.00
18509;BME280;9383;50.928;12.116;2023-04-08T05:33:29;99286.56;;;4.03;100.00
18509;BME280;9383;50.928;12.116;2023-04-08T05:35:55;99277.81;;;4.04;100.00
18509;BME280;9383;50.928;12.116;2023-04-08T05:38:22;99286.53;;;4.06;100.00
18509;BME280;9383;50.928;12.116;2023-04-08T05:40:48;99286.56;;;4.03;100.00
18509;BME280;9383;50.928;12.116;2023-04-08T05:43:16;99294.41;;;4.04;100.00
18509;BME280;9383;50.928;12.116;2023-04-08T05:45:43;99284.78;;;4.05;100.00
18509;BME280;9383;50.928;12.116;2023-04-08T05:48:09;99283.03;;;4.07;100.00
18509;BME280;9383;50.928;12.116;2023-04-08T05:50:36;99283.06;;;4.05;100.00
18509;BME280;9383;50.928;12.116;2023-04-08T05:53:02;99278.69;;;4.07;100.00
18509;BME280;9383;50.928;12.116;2023-04-08T05:55:29;99286.53;;;4.12;100.00
18509;BME280;9383;50.928;12.116;2023-04-08T05:57:55;99290.00;;;4.16;100.00
18509;BME280;9383;50.928;12.116;2023-04-08T06:00:22;99291.75;;;4.15;100.00
18509;BME280;9383;50.928;12.116;2023-04-08T06:02:48;99296.13;;;4.18;100.00
18509;BME280;9383;50.928;12.116;2023-04-08T06:05:15;99297.88;;;4.19;100.00
18509;BME280;9383;50.928;12.116;2023-04-08T06:07:44;99302.25;;;4.20;100.00
18509;BME280;9383;50.928;12.116;2023-04-08T06:10:11;99304.88;;;4.20;100.00
18509;BME280;9383;50.928;12.116;2023-04-08T06:12:37;99305.75;;;4.19;100.00
18509;BME280;9383;50.928;12.116;2023-04-08T06:15:06;99313.59;;;4.20;100.00
18509;BME280;9383;50.928;12.116;2023-04-08T06:17:36;99314.47;;;4.19;100.00
18509;BME280;9383;50.928;12.116;2023-04-08T06:20:06;99315.38;;;4.20;100.00
18509;BME280;9383;50.928;12.116;2023-04-08T06:22:35;99317.13;;;4.21;100.00
18509;BME280;9383;50.928;12.116;2023-04-08T06:25:02;99319.75;;;4.21;100.00
18509;BME280;9383;50.928;12.116;2023-04-08T06:27:29;99318.88;;;4.19;100.00
18509;BME280;9383;50.928;12.116;2023-04-08T06:29:56;99321.47;;;4.20;100.00
18509;BME280;9383;50.928;12.116;2023-04-08T06:32:23;99317.13;;;4.21;100.00
18509;BME280;9383;50.928;12.116;2023-04-08T06:34:49;99326.72;;;4.22;100.00
18509;BME280;9383;50.928;12.116;2023-04-08T06:37:17;99338.09;;;4.21;100.00
18509;BME280;9383;50.928;12.116;2023-04-08T06:39:44;99336.38;;;4.20;100.00
18509;BME280;9383;50.928;12.116;2023-04-08T06:42:10;99332.00;;;4.19;100.00
18509;BME280;9383;50.928;12.116;2023-04-08T06:44:37;99345.97;;;4.21;100.00
18509;BME280;9383;50.928;12.116;2023-04-08T06:47:04;99327.59;;;4.21;100.00
18509;BME280;9383;50.928;12.116;2023-04-08T06:49:30;99335.47;;;4.24;100.00
18509;BME280;9383;50.928;12.116;2023-04-08T06:51:58;99340.72;;;4.29;100.00
18509;BME280;9383;50.928;12.116;2023-04-08T06:54:25;99345.06;;;4.28;100.00
18509;BME280;9383;50.928;12.116;2023-04-08T06:56:52;99349.47;;;4.28;100.00
18509;BME280;9383;50.928;12.116;2023-04-08T06:59:23;99348.56;;;4.32;100.00
18509;BME280;9383;50.928;12.116;2023-04-08T07:01:49;99350.28;;;4.36;100.00
18509;BME280;9383;50.928;12.116;2023-04-08T07:04:16;99354.66;;;4.39;100.00
18509;BME280;9383;50.928;12.116;2023-04-08T07:06:42;99355.53;;;4.41;100.00
18509;BME280;9383;50.928;12.116;2023-04-08T07:09:09;99357.28;;;4.42;100.00
18509;BME280;9383;50.928;12.116;2023-04-08T07:11:36;99351.19;;;4.43;100.00
18509;BME280;9383;50.928;12.116;2023-04-08T07:14:03;99355.53;;;4.44;100.00
18509;BME280;9383;50.928;12.116;2023-04-08T07:16:29;99352.91;;;4.45;100.00
18509;BME280;9383;50.928;12.116;2023-04-08T07:18:56;99351.13;;;4.49;100.00
18509;BME280;9383;50.928;12.116;2023-04-08T07:21:23;99359.00;;;4.52;100.00
18509;BME280;9383;50.928;12.116;2023-04-08T07:23:50;99353.75;;;4.54;100.00
18509;BME280;9383;50.928;12.116;2023-04-08T07:26:16;99347.59;;;4.58;100.00
18509;BME280;9383;50.928;12.116;2023-04-08T07:28:43;99351.97;;;4.59;100.00
18509;BME280;9383;50.928;12.116;2023-04-08T07:31:13;99355.47;;;4.59;100.00
18509;BME280;9383;50.928;12.116;2023-04-08T07:33:41;99360.72;;;4.59;100.00
18509;BME280;9383;50.928;12.116;2023-04-08T07:36:09;99362.47;;;4.60;100.00
18509;BME280;9383;50.928;12.116;2023-04-08T07:38:38;99371.22;;;4.62;100.00
18509;BME280;9383;50.928;12.116;2023-04-08T07:41:05;99371.22;;;4.64;100.00
18509;BME280;9383;50.928;12.116;2023-04-08T07:43:32;99380.88;;;4.62;100.00
18509;BME280;9383;50.928;12.116;2023-04-08T07:46:03;99373.88;;;4.59;100.00
18509;BME280;9383;50.928;12.116;2023-04-08T07:48:31;99377.34;;;4.60;100.00
18509;BME280;9383;50.928;12.116;2023-04-08T07:51:04;99368.59;;;4.61;100.00
18509;BME280;9383;50.928;12.116;2023-04-08T07:53:31;99373.84;;;4.61;100.00
18509;BME280;9383;50.928;12.116;2023-04-08T07:56:15;99373.84;;;4.64;100.00
18509;BME280;9383;50.928;12.116;2023-04-08T07:58:43;99379.97;;;4.64;100.00
18509;BME280;9383;50.928;12.116;2023-04-08T08:01:20;99383.44;;;4.67;100.00
18509;BME280;9383;50.928;12.116;2023-04-08T08:03:50;99381.72;;;4.67;100.00
18509;BME280;9383;50.928;12.116;2023-04-08T08:06:17;99390.44;;;4.69;100.00
18509;BME280;9383;50.928;12.116;2023-04-08T08:08:45;99398.34;;;4.71;100.00
18509;BME280;9383;50.928;12.116;2023-04-08T08:11:26;99390.44;;;4.74;100.00
18509;BME280;9383;50.928;12.116;2023-04-08T08:13:53;99400.06;;;4.76;100.00
18509;BME280;9383;50.928;12.116;2023-04-08T08:16:20;99392.19;;;4.81;100.00
18509;BME280;9383;50.928;12.116;2023-04-08T08:18:47;99404.41;;;4.85;100.00
18509;BME280;9383;50.928;12.116;2023-04-08T08:21:13;99399.13;;;4.88;100.00
18509;BME280;9383;50.928;12.116;2023-04-08T08:23:40;99406.13;;;4.91;100.00
18509;BME280;9383;50.928;12.116;2023-04-08T08:26:10;99405.25;;;4.93;100.00
18509;BME280;9383;50.928;12.116;2023-04-08T08:28:37;99404.34;;;4.96;100.00
18509;BME280;9383;50.928;12.116;2023-04-08T08:31:05;99407.84;;;5.00;100.00
18509;BME280;9383;50.928;12.116;2023-04-08T08:33:32;99413.09;;;5.01;100.00
18509;BME280;9383;50.928;12.116;2023-04-08T08:36:00;99413.97;;;5.03;100.00
18509;BME280;9383;50.928;12.116;2023-04-08T08:38:27;99410.44;;;5.04;100.00
18509;BME280;9383;50.928;12.116;2023-04-08T08:40:54;99414.81;;;5.05;100.00
18509;BME280;9383;50.928;12.116;2023-04-08T08:43:22;99413.09;;;5.06;100.00
18509;BME280;9383;50.928;12.116;2023-04-08T08:45:50;99420.06;;;5.07;100.00
18509;BME280;9383;50.928;12.116;2023-04-08T08:48:19;99415.69;;;5.07;100.00
18509;BME280;9383;50.928;12.116;2023-04-08T08:50:46;99413.91;;;5.10;100.00
18509;BME280;9383;50.928;12.116;2023-04-08T08:53:13;99424.44;;;5.13;100.00
18509;BME280;9383;50.928;12.116;2023-04-08T08:55:40;99410.38;;;5.17;100.00
18509;BME280;9383;50.928;12.116;2023-04-08T08:58:07;99415.63;;;5.21;100.00
18509;BME280;9383;50.928;12.116;2023-04-08T09:00:52;99426.94;;;5.31;100.00
18509;BME280;9383;50.928;12.116;2023-04-08T09:03:19;99428.66;;;5.37;100.00
18509;BME280;9383;50.928;12.116;2023-04-08T09:08:34;99433.00;;;5.47;100.00
18509;BME280;9383;50.928;12.116;2023-04-08T09:11:15;99430.38;;;5.47;100.00
18509;BME280;9383;50.928;12.116;2023-04-08T09:13:42;99438.22;;;5.51;100.00
18509;BME280;9383;50.928;12.116;2023-04-08T09:16:11;99432.94;;;5.55;100.00
18509;BME280;9383;50.928;12.116;2023-04-08T09:18:40;99439.06;;;5.56;100.00
18509;BME280;9383;50.928;12.116;2023-04-08T09:21:14;99445.19;;;5.61;100.00
18509;BME280;9383;50.928;12.116;2023-04-08T09:23:50;99446.00;;;5.66;100.00
18509;BME280;9383;50.928;12.116;2023-04-08T09:26:21;99448.59;;;5.74;100.00
18509;BME280;9383;50.928;12.116;2023-04-08T09:29:06;99454.69;;;5.84;100.00
18509;BME280;9383;50.928;12.116;2023-04-08T09:31:37;99459.06;;;5.85;100.00
18509;BME280;9383;50.928;12.116;2023-04-08T09:34:15;99456.41;;;5.85;100.00
18509;BME280;9383;50.928;12.116;2023-04-08T09:36:44;99461.66;;;5.86;100.00
18509;BME280;9383;50.928;12.116;2023-04-08T09:39:11;99463.41;;;5.89;100.00
18509;BME280;9383;50.928;12.116;2023-04-08T09:41:39;99464.25;;;5.91;100.00
18509;BME280;9383;50.928;12.116;2023-04-08T09:44:08;99457.19;;;5.98;100.00
18509;BME280;9383;50.928;12.116;2023-04-08T09:46:39;99464.19;;;6.00;100.00
18509;BME280;9383;50.928;12.116;2023-04-08T09:49:18;99459.78;;;6.05;100.00
18509;BME280;9383;50.928;12.116;2023-04-08T09:52:01;99464.13;;;6.13;100.00
18509;BME280;9383;50.928;12.116;2023-04-08T09:57:20;99466.53;;;6.38;100.00
18509;BME280;9383;50.928;12.116;2023-04-08T10:00:03;99469.91;;;6.52;100.00
18509;BME280;9383;50.928;12.116;2023-04-08T10:02:35;99471.56;;;6.64;100.00
18509;BME280;9383;50.928;12.116;2023-04-08T10:05:07;99474.06;;;6.75;100.00
18509;BME280;9383;50.928;12.116;2023-04-08T10:07:36;99467.81;;;6.84;100.00
18509;BME280;9383;50.928;12.116;2023-04-08T10:10:05;99477.34;;;6.97;100.00
18509;BME280;9383;50.928;12.116;2023-04-08T10:12:33;99464.06;;;7.08;100.00
18509;BME280;9383;50.928;12.116;2023-04-08T10:17:53;99471.88;;;7.16;100.00
18509;BME280;9383;50.928;12.116;2023-04-08T10:23:03;99479.72;;;7.21;100.00
18509;BME280;9383;50.928;12.116;2023-04-08T10:25:37;99474.41;;;7.24;100.00
18509;BME280;9383;50.928;12.116;2023-04-08T10:28:23;99475.25;;;7.27;100.00
18509;BME280;9383;50.928;12.116;2023-04-08T10:30:55;99476.97;;;7.28;100.00
18509;BME280;9383;50.928;12.116;2023-04-08T10:33:30;99477.00;;;7.25;100.00
18509;BME280;9383;50.928;12.116;2023-04-08T10:36:10;99473.47;;;7.26;100.00
18509;BME280;9383;50.928;12.116;2023-04-08T10:38:38;99482.28;;;7.25;100.00
18509;BME280;9383;50.928;12.116;2023-04-08T10:41:05;99486.72;;;7.22;100.00
18509;BME280;9383;50.928;12.116;2023-04-08T10:43:35;99487.63;;;7.21;100.00
18509;BME280;9383;50.928;12.116;2023-04-08T10:46:02;99487.66;;;7.17;100.00
18509;BME280;9383;50.928;12.116;2023-04-08T10:48:32;99489.44;;;7.15;100.00
18509;BME280;9383;50.928;12.116;2023-04-08T10:51:01;99483.25;;;7.16;100.00
18509;BME280;9383;50.928;12.116;2023-04-08T10:53:33;99477.94;;;7.20;100.00
18509;BME280;9383;50.928;12.116;2023-04-08T10:58:51;99482.22;;;7.30;100.00
18509;BME280;9383;50.928;12.116;2023-04-08T11:01:18;99482.16;;;7.35;100.00
18509;BME280;9383;50.928;12.116;2023-04-08T11:03:58;99476.88;;;7.36;100.00
18509;BME280;9383;50.928;12.116;2023-04-08T11:06:26;99479.47;;;7.39;100.00
18509;BME280;9383;50.928;12.116;2023-04-08T11:08:57;99482.88;;;7.48;100.00
18509;BME280;9383;50.928;12.116;2023-04-08T11:11:25;99480.09;;;7.58;100.00
18509;BME280;9383;50.928;12.116;2023-04-08T11:13:56;99475.59;;;7.65;100.00
18509;BME280;9383;50.928;12.116;2023-04-08T11:16:23;99476.31;;;7.75;100.00
18509;BME280;9383;50.928;12.116;2023-04-08T11:18:58;99470.94;;;7.83;100.00
18509;BME280;9383;50.928;12.116;2023-04-08T11:21:35;99475.41;;;7.78;100.00
18509;BME280;9383;50.928;12.116;2023-04-08T11:24:18;99481.66;;;7.73;100.00
18509;BME280;9383;50.928;12.116;2023-04-08T11:27:04;99471.97;;;7.72;100.00
18509;BME280;9383;50.928;12.116;2023-04-08T11:29:34;99486.09;;;7.68;100.00
18509;BME280;9383;50.928;12.116;2023-04-08T11:32:01;99489.69;;;7.64;100.00
18509;BME280;9383;50.928;12.116;2023-04-08T11:34:28;99486.16;;;7.64;100.00
18509;BME280;9383;50.928;12.116;2023-04-08T11:36:55;99479.09;;;7.67;100.00
18509;BME280;9383;50.928;12.116;2023-04-08T11:39:23;99483.34;;;7.76;100.00
18509;BME280;9383;50.928;12.116;2023-04-08T11:41:51;99483.19;;;7.87;100.00
18509;BME280;9383;50.928;12.116;2023-04-08T11:44:18;99479.59;;;7.93;100.00
18509;BME280;9383;50.928;12.116;2023-04-08T11:46:52;99480.47;;;7.93;100.00
18509;BME280;9383;50.928;12.116;2023-04-08T11:49:20;99478.66;;;7.97;100.00
18509;BME280;9383;50.928;12.116;2023-04-08T11:51:57;99475.94;;;8.00;100.00
18509;BME280;9383;50.928;12.116;2023-04-08T11:54:30;99478.53;;;8.05;100.00
18509;BME280;9383;50.928;12.116;2023-04-08T11:57:03;99480.25;;;8.07;100.00
18509;BME280;9383;50.928;12.116;2023-04-08T11:59:31;99484.56;;;8.11;100.00
18509;BME280;9383;50.928;12.116;2023-04-08T12:01:59;99478.38;;;8.14;100.00
18509;BME280;9383;50.928;12.116;2023-04-08T12:04:27;99480.97;;;8.17;100.00
18509;BME280;9383;50.928;12.116;2023-04-08T12:06:53;99479.09;;;8.24;100.00
18509;BME280;9383;50.928;12.116;2023-04-08T12:09:20;99485.28;;;8.21;100.00
18509;BME280;9383;50.928;12.116;2023-04-08T12:11:47;99494.16;;;8.17;100.00
18509;BME280;9383;50.928;12.116;2023-04-08T12:14:16;99496.84;;;8.15;100.00
18509;BME280;9383;50.928;12.116;2023-04-08T12:16:44;99502.28;;;8.05;100.00
18509;BME280;9383;50.928;12.116;2023-04-08T12:19:11;99498.03;;;7.96;100.00
18509;BME280;9383;50.928;12.116;2023-04-08T12:21:37;99503.44;;;7.88;100.00
18509;BME280;9383;50.928;12.116;2023-04-08T12:24:04;99506.19;;;7.80;100.00
18509;BME280;9383;50.928;12.116;2023-04-08T12:26:34;99505.41;;;7.70;100.00
18509;BME280;9383;50.928;12.116;2023-04-08T12:29:00;99507.28;;;7.64;100.00
18509;BME280;9383;50.928;12.116;2023-04-08T12:31:27;99507.38;;;7.57;100.00
18509;BME280;9383;50.928;12.116;2023-04-08T12:33:53;99513.59;;;7.52;100.00
18509;BME280;9383;50.928;12.116;2023-04-08T12:36:20;99511.91;;;7.46;100.00
18509;BME280;9383;50.928;12.116;2023-04-08T12:38:47;99512.84;;;7.42;100.00
18509;BME280;9383;50.928;12.116;2023-04-08T12:41:13;99511.06;;;7.42;100.00
18509;BME280;9383;50.928;12.116;2023-04-08T12:43:41;99519.84;;;7.44;100.00
18509;BME280;9383;50.928;12.116;2023-04-08T12:46:09;99521.56;;;7.47;100.00
18509;BME280;9383;50.928;12.116;2023-04-08T12:48:35;99514.50;;;7.51;100.00
18509;BME280;9383;50.928;12.116;2023-04-08T12:51:02;99522.41;;;7.52;100.00
18509;BME280;9383;50.928;12.116;2023-04-08T12:53:29;99520.63;;;7.53;100.00
18509;BME280;9383;50.928;12.116;2023-04-08T12:55:55;99525.88;;;7.54;100.00
18509;BME280;9383;50.928;12.116;2023-04-08T12:58:23;99517.03;;;7.57;100.00
18509;BME280;9383;50.928;12.116;2023-04-08T13:00:53;99523.16;;;7.60;100.00
18509;BME280;9383;50.928;12.116;2023-04-08T13:03:20;99523.16;;;7.62;100.00
18509;BME280;9383;50.928;12.116;2023-04-08T13:05:46;99516.03;;;7.67;100.00
18509;BME280;9383;50.928;12.116;2023-04-08T13:08:13;99510.69;;;7.73;100.00
18509;BME280;9383;50.928;12.116;2023-04-08T13:10:42;99507.91;;;7.81;100.00
18509;BME280;9383;50.928;12.116;2023-04-08T13:13:15;99509.50;;;7.93;100.00
18509;BME280;9383;50.928;12.116;2023-04-08T13:15:42;99507.63;;;8.00;100.00
18509;BME280;9383;50.928;12.116;2023-04-08T13:18:09;99499.56;;;8.11;100.00
18509;BME280;9383;50.928;12.116;2023-04-08T13:20:37;99502.03;;;8.22;100.00
18509;BME280;9383;50.928;12.116;2023-04-08T13:23:07;99506.34;;;8.27;100.00
18509;BME280;9383;50.928;12.116;2023-04-08T13:25:41;99508.84;;;8.37;100.00
18509;BME280;9383;50.928;12.116;2023-04-08T13:28:08;99506.97;;;8.43;98.38